Terminal Aerodrome Forecast
Issued by NWS Pueblo, CO

Home | Current Version | Previous Version | Text Only | Print | Product List | Glossary On
Versions: 1 2 3 4 5 6 7 8 9 10 11 12 13 14 15
000
FTUS45 KPUB 221727
TAFPUB
TAF
KPUB 221727Z 2218/2318 20020G30KT P6SM FEW130 SCT250
     FM222100 20028G38KT P6SM SCT130 SCT250
     FM230100 22012KT P6SM SCT130 BKN250
     FM230500 03009KT P6SM SCT120 BKN250
     FM231100 05010KT P6SM BKN100
     FM231500 10007KT P6SM VCSH SCT030 OVC050=

USA.gov is the U.S. government's official web portal to all federal, state and local government web resources and services.